createdAt,value
2022-07-26T00:01:00.870Z,99.00
2022-07-26T00:03:07.811Z,98.90
2022-07-26T00:05:16.914Z,98.60
2022-07-26T00:07:24.491Z,98.60
2022-07-26T00:09:32.021Z,98.60
2022-07-26T00:11:39.456Z,99.00
2022-07-26T00:13:46.901Z,99.00
2022-07-26T00:15:54.448Z,98.50
2022-07-26T00:18:01.565Z,98.20
2022-07-26T00:20:09.779Z,98.60
2022-07-26T00:22:35.358Z,98.40
2022-07-26T00:24:42.462Z,98.60
2022-07-26T00:26:49.804Z,98.40
2022-07-26T00:28:56.825Z,98.00
2022-07-26T00:31:04.241Z,97.30
2022-07-26T00:33:11.963Z,96.50
2022-07-26T00:35:19.254Z,96.00
2022-07-26T00:37:28.064Z,95.40
2022-07-26T00:39:35.255Z,94.50
2022-07-26T00:41:42.992Z,94.10
2022-07-26T00:44:00.926Z,92.80
2022-07-26T00:46:08.402Z,92.00
2022-07-26T00:48:16.206Z,91.50
2022-07-26T00:50:24.002Z,90.70
2022-07-26T00:52:33.029Z,90.80
2022-07-26T00:54:40.884Z,90.80
2022-07-26T00:56:52.127Z,90.30
2022-07-26T00:59:02.257Z,88.90
2022-07-26T01:01:09.683Z,88.30
2022-07-26T01:03:16.986Z,87.80
2022-07-26T01:05:24.783Z,87.70
2022-07-26T01:07:34.869Z,87.70
2022-07-26T01:09:42.667Z,87.70
2022-07-26T01:11:49.641Z,87.10
2022-07-26T01:13:57.301Z,86.80
2022-07-26T01:16:04.663Z,86.70
2022-07-26T01:18:12.220Z,86.80
2022-07-26T01:20:19.600Z,86.60
2022-07-26T01:22:28.981Z,86.10
2022-07-26T01:24:36.073Z,85.70
2022-07-26T01:26:43.705Z,85.30
2022-07-26T01:28:51.500Z,84.40
2022-07-26T01:30:58.766Z,83.80
2022-07-26T01:33:06.384Z,83.90
2022-07-26T01:35:14.685Z,82.80
2022-07-26T01:37:22.017Z,83.40
2022-07-26T01:39:31.350Z,83.20
2022-07-26T01:41:38.704Z,83.10
2022-07-26T01:43:45.971Z,83.00
2022-07-26T01:45:52.982Z,82.00
2022-07-26T01:48:00.127Z,81.30
2022-07-26T01:50:07.825Z,80.60
2022-07-26T01:52:15.617Z,80.30
2022-07-26T01:54:24.481Z,79.60
2022-07-26T01:56:34.036Z,78.30
2022-07-26T01:58:41.414Z,78.90
2022-07-26T02:00:48.899Z,78.60
2022-07-26T02:02:56.090Z,78.70
2022-07-26T02:05:03.751Z,77.70
2022-07-26T02:07:13.176Z,76.10
2022-07-26T02:09:20.396Z,75.00
2022-07-26T02:11:29.369Z,76.20
2022-07-26T02:13:39.574Z,75.90
2022-07-26T02:15:46.814Z,75.00
2022-07-26T02:17:54.033Z,72.80
2022-07-26T02:20:01.474Z,73.60
2022-07-26T02:22:09.119Z,74.10
2022-07-26T02:24:16.347Z,74.40
2022-07-26T02:26:23.424Z,73.40
2022-07-26T02:28:31.428Z,73.60
2022-07-26T02:30:41.014Z,73.30
2022-07-26T02:32:48.767Z,72.20
2022-07-26T02:34:55.945Z,73.90
2022-07-26T02:37:03.582Z,73.50
2022-07-26T02:39:11.020Z,72.80
2022-07-26T02:41:18.162Z,72.50
2022-07-26T02:43:25.947Z,72.00
2022-07-26T02:45:33.494Z,71.60
2022-07-26T02:47:49.934Z,70.70
2022-07-26T02:49:57.579Z,67.10
2022-07-26T02:52:04.761Z,69.90
2022-07-26T02:54:12.322Z,70.20
2022-07-26T02:56:19.839Z,69.60
2022-07-26T02:58:28.043Z,70.00
2022-07-26T03:00:35.335Z,69.00
2022-07-26T03:02:44.147Z,68.10
2022-07-26T03:04:51.586Z,68.10
2022-07-26T03:06:58.884Z,67.90
2022-07-26T03:09:06.615Z,67.90
2022-07-26T03:11:14.002Z,68.30
2022-07-26T03:13:21.966Z,66.80
2022-07-26T03:15:29.104Z,66.90
2022-07-26T03:17:36.827Z,66.00
2022-07-26T03:19:45.604Z,67.20
2022-07-26T03:21:53.303Z,67.80
2022-07-26T03:24:00.580Z,66.70
2022-07-26T03:26:08.132Z,66.10
2022-07-26T03:28:19.359Z,65.10
2022-07-26T03:30:27.546Z,65.20
2022-07-26T03:32:34.833Z,65.60
2022-07-26T03:34:43.917Z,65.80
2022-07-26T03:36:51.394Z,66.20
2022-07-26T03:38:59.407Z,65.50
2022-07-26T03:41:06.478Z,65.60
2022-07-26T03:43:13.912Z,64.70
2022-07-26T03:45:20.845Z,63.10
2022-07-26T03:47:28.338Z,62.60
2022-07-26T03:49:35.519Z,62.60
2022-07-26T03:51:44.593Z,63.00
2022-07-26T03:53:51.868Z,62.80
2022-07-26T03:56:16.046Z,62.40
2022-07-26T03:58:23.440Z,61.80
2022-07-26T04:00:31.023Z,61.60
2022-07-26T04:02:38.127Z,62.40
2022-07-26T04:04:46.578Z,62.60
2022-07-26T04:06:59.432Z,62.80
2022-07-26T04:09:11.897Z,62.30
2022-07-26T04:11:19.125Z,62.20
2022-07-26T04:13:26.711Z,62.40
2022-07-26T04:15:33.994Z,62.50
2022-07-26T04:17:41.841Z,62.80
2022-07-26T04:19:48.972Z,62.30
2022-07-26T04:21:58.048Z,61.00
2022-07-26T04:24:05.336Z,61.70
2022-07-26T04:26:14.412Z,62.50
2022-07-26T04:28:21.547Z,62.00
2022-07-26T04:30:28.998Z,61.30
2022-07-26T04:32:36.312Z,62.20
2022-07-26T04:34:43.815Z,62.20
2022-07-26T04:36:51.084Z,61.60
2022-07-26T04:39:03.182Z,61.80
2022-07-26T04:41:10.833Z,62.50
2022-07-26T04:43:18.267Z,63.20
2022-07-26T04:45:25.441Z,61.40
2022-07-26T04:47:33.039Z,60.50
2022-07-26T04:49:40.479Z,60.70
2022-07-26T04:51:47.856Z,60.70
2022-07-26T04:53:54.990Z,61.10
2022-07-26T04:56:04.063Z,61.30
2022-07-26T04:58:11.704Z,59.80
2022-07-26T05:00:23.595Z,59.90
2022-07-26T05:02:31.729Z,58.70
2022-07-26T05:04:38.938Z,60.50
2022-07-26T05:06:46.373Z,59.90
2022-07-26T05:08:53.862Z,59.80
2022-07-26T05:11:02.688Z,58.30
2022-07-26T05:13:10.432Z,59.00
2022-07-26T05:15:17.821Z,59.50
2022-07-26T05:17:25.120Z,58.10
2022-07-26T05:19:33.103Z,60.30
2022-07-26T05:21:40.482Z,59.00
2022-07-26T05:23:47.565Z,58.80
2022-07-26T05:25:55.104Z,59.40
2022-07-26T05:28:04.037Z,57.40
2022-07-26T05:30:12.393Z,57.30
2022-07-26T05:32:19.667Z,58.20
2022-07-26T05:34:26.848Z,59.80
2022-07-26T05:36:34.337Z,58.70
2022-07-26T05:38:41.619Z,59.30
2022-07-26T05:40:50.933Z,58.00
2022-07-26T05:42:58.439Z,57.50
2022-07-26T05:45:07.939Z,57.00
2022-07-26T05:47:15.573Z,58.20
2022-07-26T05:49:23.060Z,58.50
2022-07-26T05:51:31.369Z,58.60
2022-07-26T05:53:40.288Z,59.60
2022-07-26T05:55:47.496Z,59.60
2022-07-26T05:57:54.611Z,58.80
2022-07-26T06:00:01.787Z,57.80
2022-07-26T06:02:20.539Z,58.20
2022-07-26T06:04:28.316Z,58.20
2022-07-26T06:06:35.627Z,58.00
2022-07-26T06:08:42.647Z,57.50
2022-07-26T06:10:50.493Z,57.30
2022-07-26T06:12:57.672Z,56.30
2022-07-26T06:15:05.470Z,56.10
2022-07-26T06:17:24.627Z,56.90
2022-07-26T06:19:32.220Z,57.10
2022-07-26T06:21:39.556Z,56.50
2022-07-26T06:23:47.014Z,57.30
2022-07-26T06:25:54.189Z,57.50
2022-07-26T06:28:01.511Z,57.40
2022-07-26T06:30:10.439Z,57.90
2022-07-26T06:32:17.871Z,57.90
2022-07-26T06:34:27.155Z,56.20
2022-07-26T06:36:34.852Z,56.10
2022-07-26T06:38:42.187Z,56.40
2022-07-26T06:40:49.770Z,56.70
2022-07-26T06:43:00.065Z,54.60
2022-07-26T06:45:12.583Z,54.60
2022-07-26T06:47:19.967Z,56.50
2022-07-26T06:49:28.948Z,55.60
2022-07-26T06:51:36.381Z,55.90
2022-07-26T06:53:43.561Z,56.70
2022-07-26T06:55:50.640Z,55.80
2022-07-26T06:57:58.077Z,56.10
2022-07-26T07:00:05.567Z,55.80
2022-07-26T07:02:13.052Z,56.40
2022-07-26T07:04:20.436Z,56.80
2022-07-26T07:06:29.521Z,56.10
2022-07-26T07:08:37.723Z,55.70
2022-07-26T07:10:46.549Z,56.20
2022-07-26T07:12:54.032Z,56.40
2022-07-26T07:15:01.073Z,56.50
2022-07-26T07:17:10.799Z,56.70
2022-07-26T07:19:20.696Z,57.50
2022-07-26T07:21:29.477Z,57.90
2022-07-26T07:23:36.595Z,57.30
2022-07-26T07:25:44.590Z,56.10
2022-07-26T07:27:52.097Z,56.50
2022-07-26T07:29:59.737Z,56.90
2022-07-26T07:32:07.199Z,56.90
2022-07-26T07:34:24.178Z,57.60
2022-07-26T07:36:33.247Z,58.00
2022-07-26T07:38:42.865Z,59.10
2022-07-26T07:40:50.431Z,58.80
2022-07-26T07:42:57.931Z,57.90
2022-07-26T07:45:04.968Z,57.20
2022-07-26T07:47:12.640Z,57.20
2022-07-26T07:49:20.220Z,57.30
2022-07-26T07:51:27.314Z,56.80
2022-07-26T07:53:38.797Z,56.60
2022-07-26T07:58:09.964Z,56.70
2022-07-26T08:00:27.007Z,57.20
2022-07-26T08:02:37.482Z,57.10
2022-07-26T08:04:45.096Z,56.40
2022-07-26T08:06:53.374Z,55.80
2022-07-26T08:09:13.342Z,55.20
2022-07-26T08:13:57.007Z,55.10
2022-07-26T08:20:52.295Z,53.80
2022-07-26T08:22:59.419Z,53.20
2022-07-26T08:25:09.264Z,52.50
2022-07-26T08:27:16.395Z,52.20
2022-07-26T08:29:23.887Z,52.70
2022-07-26T08:31:31.454Z,54.20
2022-07-26T08:33:40.950Z,55.40
2022-07-26T08:35:58.311Z,56.70
2022-07-26T08:38:05.925Z,57.80
2022-07-26T08:40:15.246Z,58.70
2022-07-26T08:42:24.393Z,59.50
2022-07-26T08:44:31.877Z,59.70
2022-07-26T08:46:40.261Z,60.10
2022-07-26T08:48:47.528Z,60.70
2022-07-26T08:50:56.026Z,61.10
2022-07-26T08:53:07.712Z,61.40
2022-07-26T08:55:21.251Z,61.80
2022-07-26T08:57:28.680Z,62.20
2022-07-26T08:59:35.914Z,62.70
2022-07-26T09:01:58.050Z,63.60
2022-07-26T09:04:44.035Z,63.70
2022-07-26T09:07:00.906Z,64.10
2022-07-26T09:09:15.504Z,63.70
2022-07-26T09:11:37.491Z,63.90
2022-07-26T09:13:55.207Z,63.90
2022-07-26T09:16:20.197Z,64.10
2022-07-26T09:18:31.952Z,63.90
2022-07-26T09:20:39.030Z,64.30
2022-07-26T09:23:02.490Z,64.70
2022-07-26T09:25:24.730Z,64.90
2022-07-26T09:27:39.335Z,64.50
2022-07-26T09:29:51.376Z,64.60
2022-07-26T09:32:15.053Z,64.20
2022-07-26T09:34:28.942Z,64.70
2022-07-26T09:36:36.683Z,64.90
2022-07-26T09:38:44.988Z,64.80
2022-07-26T09:40:52.071Z,64.30
2022-07-26T09:43:02.383Z,63.80
2022-07-26T09:45:20.202Z,63.60
2022-07-26T09:47:37.990Z,63.20
2022-07-26T09:49:46.223Z,63.50
2022-07-26T09:51:54.761Z,63.30
2022-07-26T09:54:01.883Z,63.40
2022-07-26T09:56:09.839Z,63.60
2022-07-26T09:58:20.290Z,63.40
2022-07-26T10:00:27.469Z,63.50
2022-07-26T10:02:35.200Z,63.40
2022-07-26T10:04:42.458Z,63.50
2022-07-26T10:06:50.457Z,63.40
2022-07-26T10:08:58.712Z,63.30
2022-07-26T10:11:08.552Z,63.30
2022-07-26T10:13:17.470Z,62.90
2022-07-26T10:15:42.987Z,62.90
2022-07-26T10:17:50.070Z,62.80
2022-07-26T10:19:57.702Z,63.50
2022-07-26T10:22:28.182Z,63.60
2022-07-26T10:24:35.727Z,63.40
2022-07-26T10:26:46.746Z,63.30
2022-07-26T10:28:55.924Z,63.20
2022-07-26T10:31:33.529Z,63.30
2022-07-26T10:33:47.610Z,63.30
2022-07-26T10:35:54.686Z,63.00
2022-07-26T10:38:03.761Z,62.80
2022-07-26T10:40:23.695Z,63.00
2022-07-26T10:42:47.629Z,63.30
2022-07-26T10:45:16.508Z,64.30
2022-07-26T10:47:23.808Z,64.70
2022-07-26T10:49:39.228Z,65.10
2022-07-26T10:51:46.400Z,65.70
2022-07-26T10:54:03.782Z,65.80
2022-07-26T10:56:10.900Z,65.80
2022-07-26T10:58:18.492Z,65.90
2022-07-26T11:00:29.691Z,65.60
2022-07-26T11:02:37.203Z,65.30
2022-07-26T11:04:44.390Z,65.00
2022-07-26T11:06:52.238Z,64.80
2022-07-26T11:08:59.626Z,64.70
2022-07-26T11:11:06.904Z,64.60
2022-07-26T11:13:19.828Z,64.70
2022-07-26T11:15:29.393Z,64.90
2022-07-26T11:17:36.539Z,64.80
2022-07-26T11:19:44.186Z,64.50
2022-07-26T11:21:56.483Z,64.40
2022-07-26T11:24:06.834Z,64.30
2022-07-26T11:26:19.809Z,63.80
2022-07-26T11:28:27.042Z,64.20
2022-07-26T11:30:38.163Z,64.30
2022-07-26T11:32:55.072Z,64.60
2022-07-26T11:35:03.084Z,65.00
2022-07-26T11:37:10.361Z,65.20
2022-07-26T11:39:22.252Z,65.70
2022-07-26T11:41:34.583Z,65.70
2022-07-26T11:43:42.913Z,65.70
2022-07-26T11:45:57.998Z,66.50
2022-07-26T11:48:05.260Z,67.50
2022-07-26T11:50:21.649Z,67.80
2022-07-26T11:52:33.967Z,67.90
2022-07-26T11:54:49.287Z,68.30
2022-07-26T11:56:58.358Z,69.20
2022-07-26T11:59:05.590Z,68.60
2022-07-26T12:01:16.254Z,68.10
2022-07-26T12:03:23.395Z,67.80
2022-07-26T12:05:31.578Z,68.30
2022-07-26T12:07:38.877Z,69.00
2022-07-26T12:09:51.486Z,69.90
2022-07-26T12:11:58.878Z,69.80
2022-07-26T12:14:07.725Z,70.50
2022-07-26T12:16:16.916Z,71.20
2022-07-26T12:18:39.873Z,71.20
2022-07-26T12:21:06.296Z,70.90
2022-07-26T12:23:14.764Z,70.20
2022-07-26T12:25:29.189Z,70.40
2022-07-26T12:27:46.241Z,71.50
2022-07-26T12:29:57.259Z,71.70
2022-07-26T12:32:12.557Z,71.90
2022-07-26T12:34:24.631Z,71.90
2022-07-26T12:36:32.620Z,72.30
2022-07-26T12:38:50.039Z,72.40
2022-07-26T12:41:00.356Z,71.90
2022-07-26T12:43:11.573Z,71.90
2022-07-26T12:47:41.456Z,73.10
2022-07-26T12:49:49.324Z,73.50
2022-07-26T12:51:56.745Z,73.20
2022-07-26T12:54:07.826Z,72.90
2022-07-26T12:56:15.294Z,72.90
2022-07-26T12:58:22.586Z,72.80
2022-07-26T13:00:30.352Z,72.50
2022-07-26T13:02:37.359Z,72.60
2022-07-26T13:04:46.233Z,73.00
2022-07-26T13:06:53.510Z,73.00
2022-07-26T13:09:00.906Z,73.20
2022-07-26T13:11:08.130Z,73.30
2022-07-26T13:13:15.410Z,73.40
2022-07-26T13:15:22.798Z,73.50
2022-07-26T13:17:30.591Z,73.90
2022-07-26T13:19:38.195Z,74.30
2022-07-26T13:21:52.582Z,74.70
2022-07-26T13:24:01.407Z,74.80
2022-07-26T13:31:13.851Z,75.20
2022-07-26T13:33:21.023Z,75.10
2022-07-26T13:35:28.207Z,75.00
2022-07-26T13:37:34.957Z,75.60
2022-07-26T13:39:42.069Z,76.00
2022-07-26T13:41:49.094Z,76.00
2022-07-26T13:43:58.971Z,75.90
2022-07-26T13:46:05.973Z,75.70
2022-07-26T13:48:13.651Z,76.40
2022-07-26T13:50:20.538Z,76.70
2022-07-26T13:52:28.168Z,77.00
2022-07-26T13:54:37.346Z,77.30
2022-07-26T13:56:44.877Z,77.50
2022-07-26T13:58:52.375Z,78.10
2022-07-26T14:01:01.343Z,78.00
2022-07-26T14:03:09.001Z,79.10
2022-07-26T14:05:16.125Z,79.00
2022-07-26T14:07:23.354Z,78.40
2022-07-26T14:09:30.747Z,78.50
2022-07-26T14:11:38.028Z,78.80
2022-07-26T14:13:45.055Z,78.90
2022-07-26T14:15:52.297Z,78.50
2022-07-26T14:18:01.369Z,78.30
2022-07-26T14:20:10.398Z,78.30
2022-07-26T14:22:17.396Z,78.20
2022-07-26T14:24:24.603Z,78.10
2022-07-26T14:26:31.982Z,78.10
2022-07-26T14:28:39.116Z,78.20
2022-07-26T14:30:46.456Z,78.70
2022-07-26T14:32:53.582Z,79.00
2022-07-26T14:35:02.605Z,79.30
2022-07-26T14:37:15.204Z,79.50
2022-07-26T14:39:38.981Z,79.40
2022-07-26T14:46:04.095Z,80.60
2022-07-26T14:48:11.513Z,81.00
2022-07-26T14:50:20.523Z,80.30
2022-07-26T14:52:27.754Z,80.30
2022-07-26T14:54:34.782Z,80.20
2022-07-26T14:56:42.428Z,80.40
2022-07-26T14:58:49.461Z,80.80
2022-07-26T15:00:57.036Z,80.90
2022-07-26T15:03:04.744Z,80.90
2022-07-26T15:05:13.306Z,80.90
2022-07-26T15:07:22.189Z,80.80
2022-07-26T15:09:29.725Z,81.00
2022-07-26T15:11:37.576Z,81.00
2022-07-26T15:13:45.826Z,81.30
2022-07-26T15:15:53.204Z,81.70
2022-07-26T15:18:01.165Z,81.70
2022-07-26T15:20:09.307Z,81.50
2022-07-26T15:22:16.646Z,81.40
2022-07-26T15:24:25.720Z,81.20
2022-07-26T15:26:33.412Z,81.10
2022-07-26T15:28:40.903Z,81.20
2022-07-26T15:30:48.600Z,81.20
2022-07-26T15:32:56.295Z,81.10
2022-07-26T15:35:03.984Z,80.90
2022-07-26T15:37:10.918Z,81.20
2022-07-26T15:39:18.662Z,81.20
2022-07-26T15:41:27.640Z,81.60
2022-07-26T15:43:44.164Z,81.90
2022-07-26T15:45:58.566Z,81.90
2022-07-26T15:48:14.876Z,82.00
2022-07-26T15:50:24.465Z,81.90
2022-07-26T15:52:31.745Z,82.10
2022-07-26T15:54:38.786Z,82.00
2022-07-26T15:56:48.065Z,82.00
2022-07-26T15:58:55.338Z,82.10
2022-07-26T16:01:03.015Z,82.20
2022-07-26T16:03:10.424Z,82.30
2022-07-26T16:05:18.125Z,82.30
2022-07-26T16:07:25.244Z,82.40
2022-07-26T16:09:32.785Z,82.60
2022-07-26T16:11:39.965Z,82.80
2022-07-26T16:13:49.055Z,83.00
2022-07-26T16:15:56.384Z,83.10
2022-07-26T16:18:06.499Z,83.40
2022-07-26T16:20:14.224Z,83.80
2022-07-26T16:22:21.669Z,83.90
2022-07-26T16:24:28.946Z,84.10
2022-07-26T16:26:36.250Z,84.20
2022-07-26T16:28:43.318Z,84.10
2022-07-26T16:30:52.585Z,84.40
2022-07-26T16:32:59.667Z,84.70
2022-07-26T16:35:07.155Z,84.80
2022-07-26T16:37:14.292Z,84.80
2022-07-26T16:39:21.418Z,84.90
2022-07-26T16:41:30.133Z,85.10
2022-07-26T16:43:37.416Z,85.40
2022-07-26T16:45:44.807Z,86.00
2022-07-26T16:47:58.152Z,86.30
2022-07-26T16:50:07.769Z,86.50
2022-07-26T16:52:15.054Z,86.50
2022-07-26T16:54:22.187Z,86.70
2022-07-26T16:56:29.621Z,86.60
2022-07-26T16:58:36.907Z,86.70
2022-07-26T17:00:44.360Z,86.60
2022-07-26T17:02:53.379Z,86.60
2022-07-26T17:05:00.803Z,86.60
2022-07-26T17:07:24.632Z,86.50
2022-07-26T17:09:32.743Z,86.70
2022-07-26T17:11:40.219Z,86.80
2022-07-26T17:13:47.353Z,86.90
2022-07-26T17:15:55.297Z,86.90
2022-07-26T17:18:04.231Z,87.10
2022-07-26T17:20:12.838Z,87.30
2022-07-26T17:22:20.015Z,87.30
2022-07-26T17:24:27.660Z,87.10
2022-07-26T17:26:37.416Z,87.10
2022-07-26T17:28:44.739Z,87.10
2022-07-26T17:30:52.098Z,87.20
2022-07-26T17:32:59.210Z,87.30
2022-07-26T17:35:09.036Z,87.10
2022-07-26T17:37:16.337Z,87.00
2022-07-26T17:39:50.760Z,87.10
2022-07-26T17:41:56.348Z,87.00
2022-07-26T17:44:04.914Z,87.20
2022-07-26T17:46:12.280Z,87.40
2022-07-26T17:48:19.840Z,87.70
2022-07-26T17:50:37.301Z,87.90
2022-07-26T17:52:45.924Z,87.90
2022-07-26T17:54:53.821Z,88.30
2022-07-26T17:57:01.160Z,88.50
2022-07-26T17:59:09.595Z,88.70
2022-07-26T18:01:17.411Z,88.70
2022-07-26T18:03:24.813Z,88.70
2022-07-26T18:05:37.148Z,88.90
2022-07-26T18:07:48.178Z,89.10
2022-07-26T18:09:55.714Z,89.40
2022-07-26T18:12:02.845Z,89.50
2022-07-26T18:14:10.181Z,89.60
2022-07-26T18:16:17.581Z,90.40
2022-07-26T18:18:25.159Z,91.10
2022-07-26T18:20:34.284Z,90.90
2022-07-26T18:22:41.673Z,90.80
2022-07-26T18:24:53.052Z,90.60
2022-07-26T18:27:00.544Z,90.10
2022-07-26T18:29:08.891Z,89.80
2022-07-26T18:31:16.814Z,89.50
2022-07-26T18:33:24.049Z,89.40
2022-07-26T18:35:35.670Z,89.80
2022-07-26T18:37:43.464Z,89.70
2022-07-26T18:39:55.505Z,89.60
2022-07-26T18:42:04.332Z,89.60
2022-07-26T18:44:11.566Z,89.70
2022-07-26T18:46:19.750Z,89.60
2022-07-26T18:48:27.102Z,89.70
2022-07-26T18:50:37.011Z,90.10
2022-07-26T18:52:44.646Z,90.10
2022-07-26T18:54:51.820Z,90.10
2022-07-26T18:56:59.366Z,90.20
2022-07-26T18:59:06.902Z,90.20
2022-07-26T19:01:14.692Z,90.30
2022-07-26T19:03:21.878Z,90.50
2022-07-26T19:05:35.222Z,90.50
2022-07-26T19:07:45.057Z,90.40
2022-07-26T19:09:56.507Z,90.40
2022-07-26T19:12:05.761Z,90.30
2022-07-26T19:14:13.006Z,90.30
2022-07-26T19:16:20.308Z,90.50
2022-07-26T19:18:27.819Z,90.70
2022-07-26T19:20:35.106Z,90.80
2022-07-26T19:22:45.712Z,90.90
2022-07-26T19:24:53.009Z,90.70
2022-07-26T19:27:00.339Z,90.60
2022-07-26T19:29:07.883Z,90.70
2022-07-26T19:31:15.323Z,90.80
2022-07-26T19:33:22.553Z,90.90
2022-07-26T19:35:29.930Z,91.00
2022-07-26T19:37:37.218Z,91.10
2022-07-26T19:39:46.550Z,91.10
2022-07-26T19:41:53.832Z,91.10
2022-07-26T19:44:01.375Z,91.30
2022-07-26T19:46:08.700Z,91.50
2022-07-26T19:48:15.989Z,91.50
2022-07-26T19:50:23.023Z,91.80
2022-07-26T19:52:30.613Z,92.00
2022-07-26T19:54:37.752Z,92.00
2022-07-26T19:56:46.713Z,92.50
2022-07-26T19:58:54.203Z,92.70
2022-07-26T20:01:01.599Z,92.70
2022-07-26T20:03:09.245Z,92.50
2022-07-26T20:05:19.592Z,92.60
2022-07-26T20:07:27.081Z,92.70
2022-07-26T20:09:34.515Z,92.80
2022-07-26T20:11:41.757Z,92.80
2022-07-26T20:13:50.924Z,92.80
2022-07-26T20:15:57.905Z,92.80
2022-07-26T20:18:05.287Z,92.90
2022-07-26T20:20:13.545Z,92.90
2022-07-26T20:22:21.085Z,92.60
2022-07-26T20:24:28.366Z,92.40
2022-07-26T20:26:36.115Z,92.40
2022-07-26T20:28:43.297Z,92.50
2022-07-26T20:30:52.829Z,92.60
2022-07-26T20:32:59.923Z,92.60
2022-07-26T20:35:07.863Z,92.50
2022-07-26T20:37:15.094Z,92.70
2022-07-26T20:39:22.890Z,93.00
2022-07-26T20:41:33.729Z,93.10
2022-07-26T20:43:41.513Z,93.20
2022-07-26T20:45:51.993Z,93.40
2022-07-26T20:47:59.806Z,93.60
2022-07-26T20:50:07.249Z,93.80
2022-07-26T20:52:14.838Z,93.80
2022-07-26T20:54:22.276Z,93.90
2022-07-26T20:56:29.766Z,93.80
2022-07-26T20:58:36.945Z,93.90
2022-07-26T21:00:44.178Z,94.00
2022-07-26T21:02:54.594Z,93.90
2022-07-26T21:05:01.768Z,93.70
2022-07-26T21:07:08.746Z,93.80
2022-07-26T21:09:16.159Z,93.80
2022-07-26T21:11:24.144Z,93.90
2022-07-26T21:13:31.320Z,94.30
2022-07-26T21:15:38.339Z,94.00
2022-07-26T21:17:45.419Z,94.10
2022-07-26T21:19:54.151Z,94.00
2022-07-26T21:22:01.525Z,93.90
2022-07-26T21:24:09.523Z,93.90
2022-07-26T21:26:16.871Z,93.80
2022-07-26T21:28:24.667Z,93.90
2022-07-26T21:30:32.048Z,93.90
2022-07-26T21:32:39.426Z,94.10
2022-07-26T21:34:46.823Z,94.20
2022-07-26T21:36:56.048Z,94.10
2022-07-26T21:39:03.031Z,94.00
2022-07-26T21:41:13.403Z,94.00
2022-07-26T21:43:20.874Z,94.00
2022-07-26T21:45:27.954Z,94.00
2022-07-26T21:47:34.925Z,94.00
2022-07-26T21:49:42.260Z,94.00
2022-07-26T21:51:49.337Z,94.00
2022-07-26T21:53:58.331Z,94.10
2022-07-26T21:56:09.117Z,94.30
2022-07-26T21:58:16.614Z,94.30
2022-07-26T22:00:23.849Z,94.40
2022-07-26T22:02:31.116Z,94.70
2022-07-26T22:04:38.672Z,94.80
2022-07-26T22:06:46.009Z,94.90
2022-07-26T22:08:53.546Z,95.00
2022-07-26T22:11:02.834Z,95.00
2022-07-26T22:13:10.422Z,94.90
2022-07-26T22:15:17.511Z,94.80
2022-07-26T22:17:24.690Z,94.80
2022-07-26T22:19:32.016Z,94.90
2022-07-26T22:21:39.093Z,95.20
2022-07-26T22:23:46.277Z,95.10
2022-07-26T22:25:53.459Z,95.10
2022-07-26T22:28:02.789Z,95.10
2022-07-26T22:30:10.847Z,95.10
2022-07-26T22:32:18.344Z,95.30
2022-07-26T22:34:25.516Z,95.30
2022-07-26T22:36:33.064Z,95.30
2022-07-26T22:38:40.236Z,95.40
2022-07-26T22:40:47.777Z,95.40
2022-07-26T22:42:54.909Z,95.50
2022-07-26T22:45:09.942Z,95.30
2022-07-26T22:47:17.461Z,95.30
2022-07-26T22:49:25.200Z,95.30
2022-07-26T22:51:32.539Z,95.40
2022-07-26T22:53:40.955Z,95.30
2022-07-26T22:55:48.643Z,95.20
2022-07-26T22:57:55.829Z,95.20
2022-07-26T23:00:04.863Z,95.20
2022-07-26T23:02:12.140Z,95.20
2022-07-26T23:04:19.663Z,95.30
2022-07-26T23:06:31.282Z,95.30
2022-07-26T23:08:47.678Z,95.20
2022-07-26T23:10:55.505Z,95.10
2022-07-26T23:13:02.588Z,95.10
2022-07-26T23:15:12.842Z,94.90
2022-07-26T23:17:19.972Z,94.90
2022-07-26T23:19:27.506Z,95.00
2022-07-26T23:21:34.587Z,94.90
2022-07-26T23:23:41.872Z,94.80
2022-07-26T23:25:51.038Z,94.80
2022-07-26T23:28:00.277Z,94.70
2022-07-26T23:30:07.729Z,94.60
2022-07-26T23:32:16.897Z,94.60
2022-07-26T23:34:24.129Z,94.50
2022-07-26T23:36:32.232Z,94.50
2022-07-26T23:38:39.209Z,94.40
2022-07-26T23:40:46.290Z,94.20
2022-07-26T23:42:54.290Z,94.00
2022-07-26T23:45:01.687Z,93.60
2022-07-26T23:47:08.861Z,93.20
2022-07-26T23:49:18.260Z,92.90
2022-07-26T23:51:25.778Z,92.90
2022-07-26T23:53:33.433Z,92.80
2022-07-26T23:55:40.411Z,92.50
2022-07-26T23:57:48.046Z,92.20
2022-07-26T23:59:55.020Z,91.80
